createdAt,value
2022-09-06T00:00:30.297Z,3.20
2022-09-06T00:03:31.909Z,2.70
2022-09-06T00:06:33.990Z,3.00
2022-09-06T00:09:35.660Z,2.50
2022-09-06T00:12:38.060Z,2.80
2022-09-06T00:15:39.763Z,2.80
2022-09-06T00:18:42.901Z,2.60
2022-09-06T00:21:44.491Z,2.80
2022-09-06T00:24:46.181Z,2.40
2022-09-06T00:27:47.749Z,2.50
2022-09-06T00:30:49.335Z,2.60
2022-09-06T00:33:51.276Z,2.30
2022-09-06T00:36:53.409Z,2.40
2022-09-06T00:42:57.628Z,2.30
2022-09-06T00:46:00.735Z,2.10
2022-09-06T00:49:06.772Z,2.30
2022-09-06T00:52:13.073Z,2.30
2022-09-06T00:55:15.365Z,2.30
2022-09-06T01:01:18.629Z,2.30
2022-09-06T01:04:20.513Z,2.00
2022-09-06T01:07:50.844Z,2.10
2022-09-06T01:10:59.103Z,2.30
2022-09-06T01:14:50.246Z,2.00
2022-09-06T01:18:09.790Z,1.90
2022-09-06T01:21:33.180Z,1.80
2022-09-06T01:24:49.808Z,2.00
2022-09-06T01:27:57.374Z,1.80
2022-09-06T01:31:24.960Z,2.10
2022-09-06T01:34:41.899Z,2.10
2022-09-06T01:37:44.099Z,1.80
2022-09-06T01:40:45.722Z,1.70
2022-09-06T01:43:51.598Z,2.00
2022-09-06T01:47:13.875Z,1.60
2022-09-06T01:50:47.131Z,1.60
2022-09-06T01:54:23.429Z,1.40
2022-09-06T01:57:40.915Z,1.70
2022-09-06T02:01:07.605Z,1.70
2022-09-06T02:04:31.298Z,1.60
2022-09-06T02:07:35.331Z,1.60
2022-09-06T02:10:42.409Z,1.60
2022-09-06T02:13:51.860Z,1.80
2022-09-06T02:16:55.867Z,1.50
2022-09-06T02:20:09.342Z,1.60
2022-09-06T02:23:11.993Z,1.60
2022-09-06T02:26:25.005Z,1.80
2022-09-06T02:29:26.811Z,1.60
2022-09-06T02:32:29.908Z,1.40
2022-09-06T02:35:31.983Z,1.90
2022-09-06T02:38:36.035Z,1.50
2022-09-06T02:41:40.329Z,1.50
2022-09-06T02:44:41.853Z,1.60
2022-09-06T02:47:43.468Z,1.50
2022-09-06T02:50:45.058Z,1.60
2022-09-06T02:53:46.945Z,1.60
2022-09-06T02:56:52.128Z,1.60
2022-09-06T02:59:54.045Z,1.60
2022-09-06T03:02:56.028Z,1.80
2022-09-06T03:05:57.656Z,1.50
2022-09-06T03:08:59.620Z,1.50
2022-09-06T03:12:01.328Z,1.70
2022-09-06T03:15:04.197Z,1.70
2022-09-06T03:18:05.787Z,1.50
2022-09-06T03:21:07.603Z,1.70
2022-09-06T03:24:09.152Z,1.40
2022-09-06T03:27:10.645Z,1.50
2022-09-06T03:30:12.686Z,1.40
2022-09-06T03:33:14.920Z,1.30
2022-09-06T03:39:18.373Z,1.70
2022-09-06T03:42:20.190Z,1.50
2022-09-06T03:45:22.157Z,1.60
2022-09-06T03:48:26.020Z,1.70
2022-09-06T03:51:27.619Z,2.60
2022-09-06T03:54:29.144Z,2.00
2022-09-06T03:57:30.766Z,1.70
2022-09-06T04:00:33.026Z,1.70
2022-09-06T04:06:36.789Z,1.70
2022-09-06T04:09:38.430Z,1.80
2022-09-06T04:12:39.969Z,2.10
2022-09-06T04:15:46.926Z,1.60
2022-09-06T04:18:48.623Z,1.60
2022-09-06T04:21:50.202Z,1.90
2022-09-06T04:24:51.946Z,2.10
2022-09-06T04:27:53.538Z,2.00
2022-09-06T04:31:04.328Z,1.60
2022-09-06T04:34:06.662Z,1.50
2022-09-06T04:37:08.198Z,1.90
2022-09-06T04:40:10.252Z,1.30
2022-09-06T04:43:11.968Z,1.50
2022-09-06T04:46:16.408Z,1.50
2022-09-06T04:49:18.064Z,1.50
2022-09-06T04:52:19.604Z,1.50
2022-09-06T04:55:21.162Z,1.80
2022-09-06T04:58:22.801Z,1.80
2022-09-06T05:01:25.671Z,2.00
2022-09-06T05:04:27.341Z,1.50
2022-09-06T05:07:28.881Z,1.80
2022-09-06T05:10:30.432Z,1.70
2022-09-06T05:13:32.597Z,1.70
2022-09-06T05:16:34.145Z,1.90
2022-09-06T05:19:35.699Z,1.50
2022-09-06T05:22:37.963Z,1.70
2022-09-06T05:28:41.003Z,1.60
2022-09-06T05:31:42.793Z,1.70
2022-09-06T05:34:44.624Z,1.60
2022-09-06T05:37:46.178Z,1.90
2022-09-06T05:40:47.769Z,1.80
2022-09-06T05:43:49.511Z,2.10
2022-09-06T05:46:51.854Z,2.10
2022-09-06T05:49:53.802Z,1.90
2022-09-06T05:52:55.509Z,2.10
2022-09-06T05:55:57.176Z,2.20
2022-09-06T05:58:58.844Z,1.90
2022-09-06T06:02:03.222Z,2.10
2022-09-06T06:05:07.587Z,1.80
2022-09-06T06:11:11.489Z,1.70
2022-09-06T06:14:13.198Z,1.80
2022-09-06T06:17:15.696Z,1.80
2022-09-06T06:20:17.500Z,2.10
2022-09-06T06:23:19.270Z,2.10
2022-09-06T06:26:21.802Z,2.00
2022-09-06T06:29:24.751Z,2.00
2022-09-06T06:32:28.947Z,1.80
2022-09-06T06:35:35.179Z,1.70
2022-09-06T06:38:42.462Z,2.00
2022-09-06T06:41:45.765Z,2.30
2022-09-06T06:45:01.737Z,2.20
2022-09-06T06:48:04.479Z,1.90
2022-09-06T06:51:12.370Z,2.00
2022-09-06T06:54:14.597Z,1.90
2022-09-06T06:57:18.633Z,1.80
2022-09-06T07:00:46.132Z,2.00
2022-09-06T07:03:58.887Z,2.20
2022-09-06T07:13:36.606Z,2.40
2022-09-06T07:16:38.627Z,2.10
2022-09-06T07:26:30.058Z,4.40
2022-09-06T07:29:31.918Z,2.60
2022-09-06T07:32:34.442Z,2.20
2022-09-06T07:35:36.404Z,2.40
2022-09-06T07:38:38.401Z,2.10
2022-09-06T07:41:39.978Z,2.20
2022-09-06T07:44:41.565Z,2.10
2022-09-06T07:47:58.495Z,2.10
2022-09-06T07:51:20.768Z,1.80
2022-09-06T07:54:31.041Z,1.70
2022-09-06T07:57:33.040Z,1.70
2022-09-06T08:00:34.790Z,1.50
2022-09-06T08:03:36.367Z,2.80
2022-09-06T08:10:02.589Z,1.90
2022-09-06T08:13:04.131Z,1.60
2022-09-06T08:16:08.422Z,1.80
2022-09-06T08:19:11.762Z,1.50
2022-09-06T08:22:13.284Z,1.50
2022-09-06T08:25:14.947Z,1.70
2022-09-06T08:28:16.556Z,1.80
2022-09-06T08:31:19.160Z,1.60
2022-09-06T08:34:21.129Z,1.80
2022-09-06T08:37:25.065Z,1.60
2022-09-06T08:40:26.855Z,1.70
2022-09-06T08:43:28.830Z,1.20
2022-09-06T08:46:38.599Z,1.70
2022-09-06T08:49:54.028Z,1.70
2022-09-06T08:53:18.465Z,1.90
2022-09-06T08:56:33.604Z,2.00
2022-09-06T08:59:40.263Z,1.60
2022-09-06T09:02:45.551Z,1.80
2022-09-06T09:05:52.015Z,1.60
2022-09-06T09:09:03.324Z,1.80
2022-09-06T09:12:05.833Z,1.50
2022-09-06T09:15:12.093Z,1.40
2022-09-06T09:18:20.051Z,1.40
2022-09-06T09:21:28.156Z,1.30
2022-09-06T09:24:32.162Z,1.30
2022-09-06T09:27:37.950Z,1.20
2022-09-06T09:30:52.165Z,1.20
2022-09-06T09:33:53.687Z,1.30
2022-09-06T09:40:48.511Z,1.50
2022-09-06T09:44:05.019Z,1.00
2022-09-06T09:47:24.047Z,1.20
2022-09-06T09:50:27.842Z,1.40
2022-09-06T09:53:29.465Z,1.20
2022-09-06T09:56:34.132Z,1.50
2022-09-06T09:59:35.680Z,1.40
2022-09-06T10:02:42.298Z,1.40
2022-09-06T10:06:02.241Z,1.40
2022-09-06T10:09:22.163Z,1.30
2022-09-06T10:12:35.377Z,1.90
2022-09-06T10:15:39.516Z,1.30
2022-09-06T10:18:43.544Z,1.30
2022-09-06T10:21:45.186Z,1.40
2022-09-06T10:28:29.595Z,1.40
2022-09-06T10:31:39.625Z,1.20
2022-09-06T10:35:05.292Z,1.40
2022-09-06T10:38:37.990Z,1.40
2022-09-06T10:42:10.944Z,1.40
2022-09-06T10:45:44.614Z,1.80
2022-09-06T10:48:47.321Z,1.30
2022-09-06T10:51:59.842Z,1.20
2022-09-06T10:55:04.995Z,1.40
2022-09-06T10:58:19.047Z,1.60
2022-09-06T11:01:29.980Z,1.70
2022-09-06T11:11:54.271Z,1.60
2022-09-06T11:14:56.100Z,1.80
2022-09-06T11:18:12.557Z,1.70
2022-09-06T11:21:32.444Z,1.70
2022-09-06T11:25:14.814Z,1.70
2022-09-06T11:28:23.923Z,1.70
2022-09-06T11:34:54.255Z,1.70
2022-09-06T11:38:02.142Z,1.80
2022-09-06T11:41:12.445Z,1.90
2022-09-06T11:44:48.965Z,1.90
2022-09-06T11:47:52.273Z,1.90
2022-09-06T11:50:53.997Z,1.80
2022-09-06T11:54:02.887Z,2.00
2022-09-06T11:57:07.307Z,2.10
2022-09-06T12:00:19.631Z,1.90
2022-09-06T12:04:06.019Z,2.60
2022-09-06T12:07:11.787Z,2.30
2022-09-06T12:10:49.148Z,2.80
2022-09-06T12:14:16.593Z,2.30
2022-09-06T12:17:20.227Z,3.10
2022-09-06T12:20:52.267Z,3.00
2022-09-06T12:23:53.840Z,2.70
2022-09-06T12:27:15.717Z,2.50
2022-09-06T12:30:41.563Z,2.30
2022-09-06T12:33:44.529Z,2.00
2022-09-06T12:36:50.276Z,2.10
2022-09-06T12:39:58.971Z,2.10
2022-09-06T12:43:03.754Z,2.10
2022-09-06T12:46:07.441Z,1.80
2022-09-06T12:49:11.580Z,2.00
2022-09-06T12:52:18.386Z,2.30
2022-09-06T12:55:36.591Z,2.40
2022-09-06T12:58:38.958Z,2.20
2022-09-06T13:01:48.796Z,2.10
2022-09-06T13:04:54.526Z,1.80
2022-09-06T13:08:00.332Z,2.00
2022-09-06T13:11:03.849Z,2.00
2022-09-06T13:14:14.806Z,1.50
2022-09-06T13:17:28.046Z,1.80
2022-09-06T13:20:30.893Z,2.00
2022-09-06T13:23:47.763Z,1.50
2022-09-06T13:26:50.401Z,2.00
2022-09-06T13:30:06.692Z,2.20
2022-09-06T13:33:23.621Z,2.00
2022-09-06T13:36:33.162Z,1.90
2022-09-06T13:39:39.198Z,1.90
2022-09-06T13:42:41.013Z,2.40
2022-09-06T13:45:43.718Z,1.70
2022-09-06T13:48:45.345Z,1.70
2022-09-06T13:51:46.875Z,1.80
2022-09-06T13:54:48.446Z,1.90
2022-09-06T13:57:50.421Z,2.20
2022-09-06T14:00:53.408Z,1.80
2022-09-06T14:03:55.023Z,1.60
2022-09-06T14:06:56.883Z,1.60
2022-09-06T14:10:00.450Z,1.90
2022-09-06T14:13:02.159Z,1.50
2022-09-06T14:16:04.760Z,1.90
2022-09-06T14:19:06.448Z,1.90
2022-09-06T14:22:08.021Z,1.70
2022-09-06T14:25:10.409Z,2.00
2022-09-06T14:28:12.265Z,1.60
2022-09-06T14:31:19.909Z,1.70
2022-09-06T14:34:21.604Z,1.30
2022-09-06T14:37:23.382Z,1.30
2022-09-06T14:40:26.196Z,1.70
2022-09-06T14:43:29.415Z,1.90
2022-09-06T14:46:33.372Z,2.20
2022-09-06T14:49:35.553Z,2.90
2022-09-06T14:55:39.081Z,1.70
2022-09-06T15:01:43.686Z,2.00
2022-09-06T15:04:45.662Z,2.00
2022-09-06T15:07:47.348Z,1.90
2022-09-06T15:10:53.612Z,2.30
2022-09-06T15:13:56.280Z,1.50
2022-09-06T15:16:59.377Z,1.70
2022-09-06T15:20:01.307Z,2.20
2022-09-06T15:23:24.429Z,1.70
2022-09-06T15:26:25.425Z,1.90
2022-09-06T15:29:26.957Z,1.60
2022-09-06T15:32:28.812Z,1.90
2022-09-06T15:35:30.734Z,2.00
2022-09-06T15:38:37.717Z,1.70
2022-09-06T15:41:40.601Z,2.40
2022-09-06T15:44:42.317Z,2.90
2022-09-06T15:47:43.923Z,2.60
2022-09-06T15:50:51.730Z,1.80
2022-09-06T15:53:53.604Z,1.60
2022-09-06T15:56:57.485Z,1.90
2022-09-06T15:59:59.649Z,1.50
2022-09-06T16:03:01.600Z,1.70
2022-09-06T16:09:27.745Z,1.70
2022-09-06T16:12:29.251Z,2.20
2022-09-06T16:15:30.771Z,2.20
2022-09-06T16:18:38.337Z,2.20
2022-09-06T16:21:43.555Z,2.10
2022-09-06T16:24:45.247Z,1.90
2022-09-06T16:27:46.862Z,2.00
2022-09-06T16:30:48.461Z,2.40
2022-09-06T16:33:50.837Z,1.90
2022-09-06T16:36:53.304Z,2.30
2022-09-06T16:39:55.421Z,2.80
2022-09-06T16:42:57.132Z,2.70
2022-09-06T16:46:00.866Z,2.60
2022-09-06T16:49:05.377Z,2.30
2022-09-06T16:52:09.131Z,2.50
2022-09-06T16:55:10.707Z,2.20
2022-09-06T16:58:12.865Z,2.10
2022-09-06T17:01:15.229Z,2.30
2022-09-06T17:04:18.088Z,2.10
2022-09-06T17:07:19.714Z,2.20
2022-09-06T17:10:21.333Z,2.40
2022-09-06T17:13:22.820Z,2.20
2022-09-06T17:16:43.469Z,2.20
2022-09-06T17:19:45.044Z,2.20
2022-09-06T17:22:50.302Z,2.10
2022-09-06T17:25:52.358Z,2.10
2022-09-06T17:28:54.269Z,2.20
2022-09-06T17:31:56.670Z,2.40
2022-09-06T17:34:58.938Z,2.30
2022-09-06T17:38:01.094Z,2.50
2022-09-06T17:41:03.388Z,2.70
2022-09-06T17:47:12.805Z,2.40
2022-09-06T17:50:17.045Z,2.60
2022-09-06T17:53:18.810Z,2.60
2022-09-06T17:56:21.209Z,2.80
2022-09-06T17:59:22.881Z,2.90
2022-09-06T18:02:25.002Z,3.80
2022-09-06T18:08:28.788Z,3.20
2022-09-06T18:11:32.959Z,3.60
2022-09-06T18:14:34.714Z,3.80
2022-09-06T18:17:36.498Z,3.90
2022-09-06T18:20:38.312Z,4.10
2022-09-06T18:23:40.067Z,3.50
2022-09-06T18:26:42.745Z,3.70
2022-09-06T18:29:44.330Z,3.40
2022-09-06T18:32:46.575Z,3.20
2022-09-06T18:35:49.644Z,3.20
2022-09-06T18:38:51.478Z,3.10
2022-09-06T18:41:59.530Z,2.80
2022-09-06T18:45:01.468Z,3.20
2022-09-06T18:48:06.972Z,3.30
2022-09-06T18:51:15.821Z,2.90
2022-09-06T18:54:19.244Z,3.30
2022-09-06T18:57:21.476Z,3.00
2022-09-06T19:00:25.299Z,2.80
2022-09-06T19:03:28.227Z,3.40
2022-09-06T19:06:31.758Z,3.00
2022-09-06T19:09:33.600Z,3.20
2022-09-06T19:15:40.091Z,3.10
2022-09-06T19:18:41.666Z,3.20
2022-09-06T19:21:44.015Z,3.40
2022-09-06T19:24:45.533Z,3.10
2022-09-06T19:27:48.877Z,2.90
2022-09-06T19:30:51.423Z,3.30
2022-09-06T19:33:55.029Z,3.50
2022-09-06T19:36:56.707Z,3.40
2022-09-06T19:39:58.391Z,3.50
2022-09-06T19:43:00.027Z,3.20
2022-09-06T19:46:04.020Z,3.40
2022-09-06T19:49:07.570Z,3.30
2022-09-06T19:52:29.690Z,3.80
2022-09-06T19:55:33.024Z,3.10
2022-09-06T19:58:36.386Z,3.80
2022-09-06T20:01:40.991Z,3.80
2022-09-06T20:04:46.155Z,3.10
2022-09-06T20:07:48.964Z,3.50
2022-09-06T20:10:58.858Z,3.40
2022-09-06T20:14:00.949Z,3.60
2022-09-06T20:17:29.679Z,3.30
2022-09-06T20:20:25.526Z,3.70
2022-09-06T20:23:33.426Z,3.80
2022-09-06T20:26:35.662Z,3.60
2022-09-06T20:29:37.334Z,4.10
2022-09-06T20:32:39.708Z,3.70
2022-09-06T20:36:13.637Z,3.90
2022-09-06T20:39:15.200Z,4.10
2022-09-06T20:42:23.430Z,3.70
2022-09-06T20:45:27.003Z,3.40
2022-09-06T20:48:33.009Z,3.20
2022-09-06T20:51:42.539Z,3.80
2022-09-06T20:54:49.582Z,3.30
2022-09-06T20:57:51.137Z,3.10
2022-09-06T21:00:53.357Z,3.30
2022-09-06T21:03:58.748Z,3.70
2022-09-06T21:07:02.969Z,3.00
2022-09-06T21:10:10.527Z,2.70
2022-09-06T21:13:15.881Z,2.60
2022-09-06T21:16:24.283Z,2.40
2022-09-06T21:19:26.115Z,2.90
2022-09-06T21:22:27.776Z,2.60
2022-09-06T21:25:29.557Z,2.70
2022-09-06T21:28:36.051Z,2.80
2022-09-06T21:31:37.849Z,2.20
2022-09-06T21:34:39.998Z,2.20
2022-09-06T21:37:41.637Z,2.30
2022-09-06T21:40:43.371Z,2.60
2022-09-06T21:43:45.949Z,2.40
2022-09-06T21:46:47.671Z,2.40
2022-09-06T21:49:49.262Z,2.20
2022-09-06T21:52:51.743Z,2.00
2022-09-06T21:55:59.433Z,2.10
2022-09-06T21:59:01.548Z,1.90
2022-09-06T22:05:06.005Z,1.90
2022-09-06T22:08:07.623Z,2.10
2022-09-06T22:11:24.659Z,1.50
2022-09-06T22:14:26.303Z,1.70
2022-09-06T22:17:27.907Z,1.70
2022-09-06T22:20:29.564Z,1.50
2022-09-06T22:23:31.887Z,1.70
2022-09-06T22:26:35.994Z,1.70
2022-09-06T22:29:37.608Z,1.60
2022-09-06T22:32:39.547Z,1.40
2022-09-06T22:35:41.165Z,1.60
2022-09-06T22:38:43.057Z,1.60
2022-09-06T22:41:45.021Z,1.50
2022-09-06T22:44:46.700Z,1.50
2022-09-06T22:47:50.394Z,2.00
2022-09-06T22:50:52.014Z,1.40
2022-09-06T22:53:53.780Z,1.50
2022-09-06T22:56:55.409Z,1.60
2022-09-06T22:59:57.488Z,1.50
2022-09-06T23:02:59.132Z,1.50
2022-09-06T23:06:01.999Z,1.40
2022-09-06T23:09:04.364Z,1.80
2022-09-06T23:12:06.108Z,2.20
2022-09-06T23:15:08.218Z,1.70
2022-09-06T23:18:09.842Z,1.50
2022-09-06T23:21:15.092Z,1.50
2022-09-06T23:24:16.735Z,1.70
2022-09-06T23:27:18.394Z,1.90
2022-09-06T23:30:20.048Z,1.80
2022-09-06T23:33:21.768Z,1.70
2022-09-06T23:36:24.280Z,1.60
2022-09-06T23:39:27.555Z,1.70
2022-09-06T23:42:29.222Z,1.60
2022-09-06T23:45:30.858Z,1.60
2022-09-06T23:48:33.455Z,1.70
2022-09-06T23:51:35.043Z,1.50
2022-09-06T23:54:36.683Z,1.70
2022-09-06T23:57:38.378Z,1.70
